Portree, United Kingdom
Current Conditions -  °F | °C
As of 7:50 AM on Sunday 26 Oct 2014 (Local Time) from EGPL Reporting Station
Light Rain Light Rain  
Wind Chill: 52°   Ceiling: Unl
Heat Index: 52°   Visibility: 3mi
Dew Point: 50°   Wind: 25mph
Humidity: 94%   Direction: 230°SW
Pressure: 29.35"   Gusts: NA
Location:  57.41°N, 6.19°W
Report Text: EGPL 260650Z AUTO 23022KT 5000 -RA FEW013/// SCT024/// 11/10 Q0994 RERA
Loading
Personal Weather Stations






























Interactive Weather Map
Tropical Storm Tracking
New forecast layout! Learn more

10-Day Weather Forecast

Advertisements
Track Severe Weather on mobile